Aviation Digital Data Service (ADDS)

Output produced by METARs form (1155 UTC 22 March 2019)
found at http://www.aviationweather.gov/metar/data/
 
METAR text: ENZV 221150Z 15018KT 9999 VCSH FEW007 BKN012 08/05 Q1021 TEMPO 16022G32KT 4000 -RADZ BKN009
Conditions at: ENZV (STAVANGER/SOLA(A, NO) observed 1150 UTC 22 March 2019
Temperature: 8.0°C (46°F)
Dewpoint: 5.0°C (41°F) [RH = 81%]
Pressure (altimeter): 30.15 inches Hg (1021.0 mb)
Winds: from the SSE (150 degrees) at 21 MPH (18 knots; 9.3 m/s)
Visibility: 6 or more miles (10+ km)
Ceiling: 1200 feet AGL
Clouds: few clouds at 700 feet AGL
broken clouds at 1200 feet AGL
Weather: VCSH  (showers in vicinity)

METAR text: ENZV 221120Z 15020KT 9999 FEW006 SCT010 BKN015 08/04 Q1022 TEMPO 16022G32KT BKN009
Conditions at: ENZV (STAVANGER/SOLA(A, NO) observed 1120 UTC 22 March 2019
Temperature: 8.0°C (46°F)
Dewpoint: 4.0°C (39°F) [RH = 76%]
Pressure (altimeter): 30.18 inches Hg (1022.0 mb)
Winds: from the SSE (150 degrees) at 23 MPH (20 knots; 10.3 m/s)
Visibility: 6 or more miles (10+ km)
Ceiling: 1500 feet AGL
Clouds: few clouds at 600 feet AGL
scattered clouds at 1000 feet AGL
broken clouds at 1500 feet AGL
Weather: no significant weather observed at this time

METAR text: ENZV 221050Z 15020KT 9999 BKN018 08/03 Q1023 TEMPO BKN010
Conditions at: ENZV (STAVANGER/SOLA(A, NO) observed 1050 UTC 22 March 2019
Temperature: 8.0°C (46°F)
Dewpoint: 3.0°C (37°F) [RH = 71%]
Pressure (altimeter): 30.21 inches Hg (1023.0 mb)
Winds: from the SSE (150 degrees) at 23 MPH (20 knots; 10.3 m/s)
Visibility: 6 or more miles (10+ km)
Ceiling: 1800 feet AGL
Clouds: broken clouds at 1800 feet AGL
Weather: no significant weather observed at this time

METAR text: ENZV 221020Z 16021KT 9999 BKN018 08/02 Q1023 TEMPO BKN012
Conditions at: ENZV (STAVANGER/SOLA(A, NO) observed 1020 UTC 22 March 2019
Temperature: 8.0°C (46°F)
Dewpoint: 2.0°C (36°F) [RH = 66%]
Pressure (altimeter): 30.21 inches Hg (1023.0 mb)
Winds: from the SSE (160 degrees) at 24 MPH (21 knots; 10.8 m/s)
Visibility: 6 or more miles (10+ km)
Ceiling: 1800 feet AGL
Clouds: broken clouds at 1800 feet AGL
Weather: no significant weather observed at this time

METAR text: ENZV 220950Z 16020G32KT 9999 BKN018 08/01 Q1024 TEMPO BKN012
Conditions at: ENZV (STAVANGER/SOLA(A, NO) observed 0950 UTC 22 March 2019
Temperature: 8.0°C (46°F)
Dewpoint: 1.0°C (34°F) [RH = 61%]
Pressure (altimeter): 30.24 inches Hg (1024.0 mb)
Winds: from the SSE (160 degrees) at 23 MPH (20 knots; 10.3 m/s)
gusting to 37 MPH (32 knots; 16.5 m/s)
Visibility: 6 or more miles (10+ km)
Ceiling: 1800 feet AGL
Clouds: broken clouds at 1800 feet AGL
Weather: no significant weather observed at this time

METAR text: ENZV 220920Z 16018KT 9999 BKN020 08/M01 Q1024 BECMG 16022G32KT TEMPO BKN012
Conditions at: ENZV (STAVANGER/SOLA(A, NO) observed 0920 UTC 22 March 2019
Temperature: 8.0°C (46°F)
Dewpoint: -1.0°C (30°F) [RH = 53%]
Pressure (altimeter): 30.24 inches Hg (1024.0 mb)
Winds: from the SSE (160 degrees) at 21 MPH (18 knots; 9.3 m/s)
Visibility: 6 or more miles (10+ km)
Ceiling: 2000 feet AGL
Clouds: broken clouds at 2000 feet AGL
Weather: no significant weather observed at this time

METAR text: ENZV 220850Z 16017KT 9999 BKN028 08/M02 Q1024 BECMG 16022G32KT TEMPO BKN012
Conditions at: ENZV (STAVANGER/SOLA(A, NO) observed 0850 UTC 22 March 2019
Temperature: 8.0°C (46°F)
Dewpoint: -2.0°C (28°F) [RH = 49%]
Pressure (altimeter): 30.24 inches Hg (1024.0 mb)
Winds: from the SSE (160 degrees) at 20 MPH (17 knots; 8.7 m/s)
Visibility: 6 or more miles (10+ km)
Ceiling: 2800 feet AGL
Clouds: broken clouds at 2800 feet AGL
Weather: no significant weather observed at this time

METAR text: ENZV 220820Z 16013KT CAVOK 09/M02 Q1025 NOSIG
Conditions at: ENZV (STAVANGER/SOLA(A, NO) observed 0820 UTC 22 March 2019
Temperature: 9.0°C (48°F)
Dewpoint: -2.0°C (28°F) [RH = 46%]
Pressure (altimeter): 30.27 inches Hg (1025.0 mb)
Winds: from the SSE (160 degrees) at 15 MPH (13 knots; 6.7 m/s)
Visibility: 6 or more miles (10+ km)
Ceiling: ceiling and visibility are OK
Clouds: unknown
Weather: no significant weather observed at this time

METAR text: ENZV 220750Z 15014KT CAVOK 08/M04 Q1024 NOSIG
Conditions at: ENZV (STAVANGER/SOLA(A, NO) observed 0750 UTC 22 March 2019
Temperature: 8.0°C (46°F)
Dewpoint: -4.0°C (25°F) [RH = 42%]
Pressure (altimeter): 30.24 inches Hg (1024.0 mb)
Winds: from the SSE (150 degrees) at 16 MPH (14 knots; 7.2 m/s)
Visibility: 6 or more miles (10+ km)
Ceiling: ceiling and visibility are OK
Clouds: unknown
Weather: no significant weather observed at this time

METAR text: ENZV 220720Z 15012KT CAVOK 07/M03 Q1025 NOSIG
Conditions at: ENZV (STAVANGER/SOLA(A, NO) observed 0720 UTC 22 March 2019
Temperature: 7.0°C (45°F)
Dewpoint: -3.0°C (27°F) [RH = 49%]
Pressure (altimeter): 30.27 inches Hg (1025.0 mb)
Winds: from the SSE (150 degrees) at 14 MPH (12 knots; 6.2 m/s)
Visibility: 6 or more miles (10+ km)
Ceiling: ceiling and visibility are OK
Clouds: unknown
Weather: no significant weather observed at this time

METAR text: ENZV 220650Z 14011KT CAVOK 06/M02 Q1026 NOSIG
Conditions at: ENZV (STAVANGER/SOLA(A, NO) observed 0650 UTC 22 March 2019
Temperature: 6.0°C (43°F)
Dewpoint: -2.0°C (28°F) [RH = 56%]
Pressure (altimeter): 30.30 inches Hg (1026.0 mb)
Winds: from the SE (140 degrees) at 13 MPH (11 knots; 5.7 m/s)
Visibility: 6 or more miles (10+ km)
Ceiling: ceiling and visibility are OK
Clouds: unknown
Weather: no significant weather observed at this time

METAR text: ENZV 220620Z 13009KT CAVOK 06/M02 Q1026 NOSIG
Conditions at: ENZV (STAVANGER/SOLA(A, NO) observed 0620 UTC 22 March 2019
Temperature: 6.0°C (43°F)
Dewpoint: -2.0°C (28°F) [RH = 56%]
Pressure (altimeter): 30.30 inches Hg (1026.0 mb)
Winds: from the SE (130 degrees) at 10 MPH (9 knots; 4.6 m/s)
Visibility: 6 or more miles (10+ km)
Ceiling: ceiling and visibility are OK
Clouds: unknown
Weather: no significant weather observed at this time

METAR text: ENZV 220550Z 15007KT CAVOK 05/M01 Q1027 NOSIG
Conditions at: ENZV (STAVANGER/SOLA(A, NO) observed 0550 UTC 22 March 2019
Temperature: 5.0°C (41°F)
Dewpoint: -1.0°C (30°F) [RH = 65%]
Pressure (altimeter): 30.32 inches Hg (1027.0 mb)
Winds: from the SSE (150 degrees) at 8 MPH (7 knots; 3.6 m/s)
Visibility: 6 or more miles (10+ km)
Ceiling: ceiling and visibility are OK
Clouds: unknown
Weather: no significant weather observed at this time

METAR text: ENZV 220520Z 14006KT CAVOK 05/M01 Q1027 NOSIG
Conditions at: ENZV (STAVANGER/SOLA(A, NO) observed 0520 UTC 22 March 2019
Temperature: 5.0°C (41°F)
Dewpoint: -1.0°C (30°F) [RH = 65%]
Pressure (altimeter): 30.32 inches Hg (1027.0 mb)
Winds: from the SE (140 degrees) at 7 MPH (6 knots; 3.1 m/s)
Visibility: 6 or more miles (10+ km)
Ceiling: ceiling and visibility are OK
Clouds: unknown
Weather: no significant weather observed at this time

METAR text: ENZV 220450Z 12006KT CAVOK 04/M00 Q1027
Conditions at: ENZV (STAVANGER/SOLA(A, NO) observed 0450 UTC 22 March 2019
Temperature: 4.0°C (39°F)
Dewpoint: 0.0°C (32°F) [RH = 75%]
Pressure (altimeter): 30.32 inches Hg (1027.0 mb)
Winds: from the ESE (120 degrees) at 7 MPH (6 knots; 3.1 m/s)
Visibility: 6 or more miles (10+ km)
Ceiling: ceiling and visibility are OK
Clouds: unknown
Weather: no significant weather observed at this time

METAR text: ENZV 220420Z 13005KT CAVOK 03/00 Q1028
Conditions at: ENZV (STAVANGER/SOLA(A, NO) observed 0420 UTC 22 March 2019
Temperature: 3.0°C (37°F)
Dewpoint: 0.0°C (32°F) [RH = 81%]
Pressure (altimeter): 30.35 inches Hg (1028.0 mb)
Winds: from the SE (130 degrees) at 6 MPH (5 knots; 2.6 m/s)
Visibility: 6 or more miles (10+ km)
Ceiling: ceiling and visibility are OK
Clouds: unknown
Weather: no significant weather observed at this time

METAR text: ENZV 220350Z 13005KT CAVOK 03/01 Q1028
Conditions at: ENZV (STAVANGER/SOLA(A, NO) observed 0350 UTC 22 March 2019
Temperature: 3.0°C (37°F)
Dewpoint: 1.0°C (34°F) [RH = 87%]
Pressure (altimeter): 30.35 inches Hg (1028.0 mb)
Winds: from the SE (130 degrees) at 6 MPH (5 knots; 2.6 m/s)
Visibility: 6 or more miles (10+ km)
Ceiling: ceiling and visibility are OK
Clouds: unknown
Weather: no significant weather observed at this time

METAR text: ENZV 220250Z 16002KT CAVOK 02/01 Q1028
Conditions at: ENZV (STAVANGER/SOLA(A, NO) observed 0250 UTC 22 March 2019
Temperature: 2.0°C (36°F)
Dewpoint: 1.0°C (34°F) [RH = 93%]
Pressure (altimeter): 30.35 inches Hg (1028.0 mb)
Winds: from the SSE (160 degrees) at 2 MPH (2 knots; 1.0 m/s)
Visibility: 6 or more miles (10+ km)
Ceiling: ceiling and visibility are OK
Clouds: unknown
Weather: no significant weather observed at this time

METAR text: ENZV 220150Z 15004KT CAVOK 02/01 Q1029
Conditions at: ENZV (STAVANGER/SOLA(A, NO) observed 0150 UTC 22 March 2019
Temperature: 2.0°C (36°F)
Dewpoint: 1.0°C (34°F) [RH = 93%]
Pressure (altimeter): 30.38 inches Hg (1029.0 mb)
Winds: from the SSE (150 degrees) at 5 MPH (4 knots; 2.1 m/s)
Visibility: 6 or more miles (10+ km)
Ceiling: ceiling and visibility are OK
Clouds: unknown
Weather: no significant weather observed at this time

METAR text: ENZV 220050Z 13007KT CAVOK 02/01 Q1029
Conditions at: ENZV (STAVANGER/SOLA(A, NO) observed 0050 UTC 22 March 2019
Temperature: 2.0°C (36°F)
Dewpoint: 1.0°C (34°F) [RH = 93%]
Pressure (altimeter): 30.38 inches Hg (1029.0 mb)
Winds: from the SE (130 degrees) at 8 MPH (7 knots; 3.6 m/s)
Visibility: 6 or more miles (10+ km)
Ceiling: ceiling and visibility are OK
Clouds: unknown
Weather: no significant weather observed at this time

METAR text: ENZV 212350Z 11006KT CAVOK 01/00 Q1030
Conditions at: ENZV (STAVANGER/SOLA(A, NO) observed 2350 UTC 21 March 2019
Temperature: 1.0°C (34°F)
Dewpoint: 0.0°C (32°F) [RH = 93%]
Pressure (altimeter): 30.41 inches Hg (1030.0 mb)
Winds: from the ESE (110 degrees) at 7 MPH (6 knots; 3.1 m/s)
Visibility: 6 or more miles (10+ km)
Ceiling: ceiling and visibility are OK
Clouds: unknown
Weather: no significant weather observed at this time

METAR text: ENZV 212320Z VRB02KT CAVOK 02/01 Q1031
Conditions at: ENZV (STAVANGER/SOLA(A, NO) observed 2320 UTC 21 March 2019
Temperature: 2.0°C (36°F)
Dewpoint: 1.0°C (34°F) [RH = 93%]
Pressure (altimeter): 30.44 inches Hg (1031.0 mb)
Winds: variable direction winds at 2 MPH (2 knots; 1.0 m/s)
Visibility: 6 or more miles (10+ km)
Ceiling: ceiling and visibility are OK
Clouds: unknown
Weather: no significant weather observed at this time

METAR text: ENZV 212250Z 18003KT CAVOK 02/02 Q1030
Conditions at: ENZV (STAVANGER/SOLA(A, NO) observed 2250 UTC 21 March 2019
Temperature: 2.0°C (36°F)
Dewpoint: 2.0°C (36°F) [RH = 100%]
Pressure (altimeter): 30.41 inches Hg (1030.0 mb)
Winds: from the S (180 degrees) at 3 MPH (3 knots; 1.5 m/s)
Visibility: 6 or more miles (10+ km)
Ceiling: ceiling and visibility are OK
Clouds: unknown
Weather: no significant weather observed at this time

METAR text: ENZV 212220Z 14005KT CAVOK 02/01 Q1029
Conditions at: ENZV (STAVANGER/SOLA(A, NO) observed 2220 UTC 21 March 2019
Temperature: 2.0°C (36°F)
Dewpoint: 1.0°C (34°F) [RH = 93%]
Pressure (altimeter): 30.38 inches Hg (1029.0 mb)
Winds: from the SE (140 degrees) at 6 MPH (5 knots; 2.6 m/s)
Visibility: 6 or more miles (10+ km)
Ceiling: ceiling and visibility are OK
Clouds: unknown
Weather: no significant weather observed at this time

METAR text: ENZV 212150Z VRB02KT CAVOK 03/02 Q1029
Conditions at: ENZV (STAVANGER/SOLA(A, NO) observed 2150 UTC 21 March 2019
Temperature: 3.0°C (37°F)
Dewpoint: 2.0°C (36°F) [RH = 93%]
Pressure (altimeter): 30.38 inches Hg (1029.0 mb)
Winds: variable direction winds at 2 MPH (2 knots; 1.0 m/s)
Visibility: 6 or more miles (10+ km)
Ceiling: ceiling and visibility are OK
Clouds: unknown
Weather: no significant weather observed at this time

METAR text: ENZV 212120Z 00000KT 9999 NSC 04/03 Q1029
Conditions at: ENZV (STAVANGER/SOLA(A, NO) observed 2120 UTC 21 March 2019
Temperature: 4.0°C (39°F)
Dewpoint: 3.0°C (37°F) [RH = 93%]
Pressure (altimeter): 30.38 inches Hg (1029.0 mb)
Winds: calm
Visibility: 6 or more miles (10+ km)
Ceiling: at least 12,000 feet AGL
Clouds: sky clear below 12,000 feet AGL
Weather: no significant weather observed at this time

METAR text: ENZV 212050Z 00000KT 9999 NSC 04/03 Q1029
Conditions at: ENZV (STAVANGER/SOLA(A, NO) observed 2050 UTC 21 March 2019
Temperature: 4.0°C (39°F)
Dewpoint: 3.0°C (37°F) [RH = 93%]
Pressure (altimeter): 30.38 inches Hg (1029.0 mb)
Winds: calm
Visibility: 6 or more miles (10+ km)
Ceiling: at least 12,000 feet AGL
Clouds: sky clear below 12,000 feet AGL
Weather: no significant weather observed at this time

METAR text: ENZV 212020Z 29004KT 9999 NSC 05/03 Q1029 NOSIG
Conditions at: ENZV (STAVANGER/SOLA(A, NO) observed 2020 UTC 21 March 2019
Temperature: 5.0°C (41°F)
Dewpoint: 3.0°C (37°F) [RH = 87%]
Pressure (altimeter): 30.38 inches Hg (1029.0 mb)
Winds: from the WNW (290 degrees) at 5 MPH (4 knots; 2.1 m/s)
Visibility: 6 or more miles (10+ km)
Ceiling: at least 12,000 feet AGL
Clouds: sky clear below 12,000 feet AGL
Weather: no significant weather observed at this time

METAR text: ENZV 211950Z 00000KT 9999 FEW025 05/03 Q1029 NOSIG
Conditions at: ENZV (STAVANGER/SOLA(A, NO) observed 1950 UTC 21 March 2019
Temperature: 5.0°C (41°F)
Dewpoint: 3.0°C (37°F) [RH = 87%]
Pressure (altimeter): 30.38 inches Hg (1029.0 mb)
Winds: calm
Visibility: 6 or more miles (10+ km)
Ceiling: at least 12,000 feet AGL
Clouds: few clouds at 2500 feet AGL
Weather: no significant weather observed at this time

METAR text: ENZV 211920Z 35003KT 9999 FEW025 04/02 Q1028 NOSIG
Conditions at: ENZV (STAVANGER/SOLA(A, NO) observed 1920 UTC 21 March 2019
Temperature: 4.0°C (39°F)
Dewpoint: 2.0°C (36°F) [RH = 87%]
Pressure (altimeter): 30.35 inches Hg (1028.0 mb)
Winds: from the N (350 degrees) at 3 MPH (3 knots; 1.5 m/s)
Visibility: 6 or more miles (10+ km)
Ceiling: at least 12,000 feet AGL
Clouds: few clouds at 2500 feet AGL
Weather: no significant weather observed at this time

METAR text: ENZV 211850Z 32005KT 9999 FEW025 06/04 Q1029 NOSIG
Conditions at: ENZV (STAVANGER/SOLA(A, NO) observed 1850 UTC 21 March 2019
Temperature: 6.0°C (43°F)
Dewpoint: 4.0°C (39°F) [RH = 87%]
Pressure (altimeter): 30.38 inches Hg (1029.0 mb)
Winds: from the NW (320 degrees) at 6 MPH (5 knots; 2.6 m/s)
Visibility: 6 or more miles (10+ km)
Ceiling: at least 12,000 feet AGL
Clouds: few clouds at 2500 feet AGL
Weather: no significant weather observed at this time

METAR text: ENZV 211820Z 33007KT 9999 FEW025 06/04 Q1028 NOSIG
Conditions at: ENZV (STAVANGER/SOLA(A, NO) observed 1820 UTC 21 March 2019
Temperature: 6.0°C (43°F)
Dewpoint: 4.0°C (39°F) [RH = 87%]
Pressure (altimeter): 30.35 inches Hg (1028.0 mb)
Winds: from the NNW (330 degrees) at 8 MPH (7 knots; 3.6 m/s)
Visibility: 6 or more miles (10+ km)
Ceiling: at least 12,000 feet AGL
Clouds: few clouds at 2500 feet AGL
Weather: no significant weather observed at this time

METAR text: ENZV 211750Z 32009KT 9999 FEW025 07/04 Q1028 NOSIG
Conditions at: ENZV (STAVANGER/SOLA(A, NO) observed 1750 UTC 21 March 2019
Temperature: 7.0°C (45°F)
Dewpoint: 4.0°C (39°F) [RH = 81%]
Pressure (altimeter): 30.35 inches Hg (1028.0 mb)
Winds: from the NW (320 degrees) at 10 MPH (9 knots; 4.6 m/s)
Visibility: 6 or more miles (10+ km)
Ceiling: at least 12,000 feet AGL
Clouds: few clouds at 2500 feet AGL
Weather: no significant weather observed at this time

METAR text: ENZV 211720Z 31010KT 9999 FEW020 07/05 Q1028 NOSIG
Conditions at: ENZV (STAVANGER/SOLA(A, NO) observed 1720 UTC 21 March 2019
Temperature: 7.0°C (45°F)
Dewpoint: 5.0°C (41°F) [RH = 87%]
Pressure (altimeter): 30.35 inches Hg (1028.0 mb)
Winds: from the NW (310 degrees) at 12 MPH (10 knots; 5.1 m/s)
Visibility: 6 or more miles (10+ km)
Ceiling: at least 12,000 feet AGL
Clouds: few clouds at 2000 feet AGL
Weather: no significant weather observed at this time

METAR text: ENZV 211650Z 32011KT 9999 FEW010 07/05 Q1027 NOSIG
Conditions at: ENZV (STAVANGER/SOLA(A, NO) observed 1650 UTC 21 March 2019
Temperature: 7.0°C (45°F)
Dewpoint: 5.0°C (41°F) [RH = 87%]
Pressure (altimeter): 30.32 inches Hg (1027.0 mb)
Winds: from the NW (320 degrees) at 13 MPH (11 knots; 5.7 m/s)
Visibility: 6 or more miles (10+ km)
Ceiling: at least 12,000 feet AGL
Clouds: few clouds at 1000 feet AGL
Weather: no significant weather observed at this time

METAR text: ENZV 211620Z 32012KT 9999 FEW010 SCT180 08/05 Q1027 NOSIG
Conditions at: ENZV (STAVANGER/SOLA(A, NO) observed 1620 UTC 21 March 2019
Temperature: 8.0°C (46°F)
Dewpoint: 5.0°C (41°F) [RH = 81%]
Pressure (altimeter): 30.32 inches Hg (1027.0 mb)
Winds: from the NW (320 degrees) at 14 MPH (12 knots; 6.2 m/s)
Visibility: 6 or more miles (10+ km)
Ceiling: at least 12,000 feet AGL
Clouds: few clouds at 1000 feet AGL
scattered clouds at 18000 feet AGL
Weather: no significant weather observed at this time

METAR text: ENZV 211550Z 31013KT 9999 FEW010 SCT040 08/05 Q1027 NOSIG
Conditions at: ENZV (STAVANGER/SOLA(A, NO) observed 1550 UTC 21 March 2019
Temperature: 8.0°C (46°F)
Dewpoint: 5.0°C (41°F) [RH = 81%]
Pressure (altimeter): 30.32 inches Hg (1027.0 mb)
Winds: from the NW (310 degrees) at 15 MPH (13 knots; 6.7 m/s)
Visibility: 6 or more miles (10+ km)
Ceiling: at least 12,000 feet AGL
Clouds: few clouds at 1000 feet AGL
scattered clouds at 4000 feet AGL
Weather: no significant weather observed at this time

METAR text: ENZV 211520Z 31013KT 9999 FEW008 SCT035 SCT150 08/06 Q1026 NOSIG
Conditions at: ENZV (STAVANGER/SOLA(A, NO) observed 1520 UTC 21 March 2019
Temperature: 8.0°C (46°F)
Dewpoint: 6.0°C (43°F) [RH = 87%]
Pressure (altimeter): 30.30 inches Hg (1026.0 mb)
Winds: from the NW (310 degrees) at 15 MPH (13 knots; 6.7 m/s)
Visibility: 6 or more miles (10+ km)
Ceiling: at least 12,000 feet AGL
Clouds: few clouds at 800 feet AGL
scattered clouds at 3500 feet AGL
scattered clouds at 15000 feet AGL
Weather: no significant weather observed at this time

METAR text: ENZV 211450Z 31012KT 9999 FEW008 SCT040 SCT150 08/06 Q1026 NOSIG
Conditions at: ENZV (STAVANGER/SOLA(A, NO) observed 1450 UTC 21 March 2019
Temperature: 8.0°C (46°F)
Dewpoint: 6.0°C (43°F) [RH = 87%]
Pressure (altimeter): 30.30 inches Hg (1026.0 mb)
Winds: from the NW (310 degrees) at 14 MPH (12 knots; 6.2 m/s)
Visibility: 6 or more miles (10+ km)
Ceiling: at least 12,000 feet AGL
Clouds: few clouds at 800 feet AGL
scattered clouds at 4000 feet AGL
scattered clouds at 15000 feet AGL
Weather: no significant weather observed at this time

METAR text: ENZV 211420Z 31012KT 9999 FEW005 SCT040 BKN170 08/07 Q1025 NOSIG
Conditions at: ENZV (STAVANGER/SOLA(A, NO) observed 1420 UTC 21 March 2019
Temperature: 8.0°C (46°F)
Dewpoint: 7.0°C (45°F) [RH = 93%]
Pressure (altimeter): 30.27 inches Hg (1025.0 mb)
Winds: from the NW (310 degrees) at 14 MPH (12 knots; 6.2 m/s)
Visibility: 6 or more miles (10+ km)
Ceiling: 17000 feet AGL
Clouds: few clouds at 500 feet AGL
scattered clouds at 4000 feet AGL
broken clouds at 17000 feet AGL
Weather: no significant weather observed at this time

METAR text: ENZV 211350Z 31011KT 9999 FEW004 SCT006 BKN170 09/07 Q1025 NOSIG
Conditions at: ENZV (STAVANGER/SOLA(A, NO) observed 1350 UTC 21 March 2019
Temperature: 9.0°C (48°F)
Dewpoint: 7.0°C (45°F) [RH = 87%]
Pressure (altimeter): 30.27 inches Hg (1025.0 mb)
Winds: from the NW (310 degrees) at 13 MPH (11 knots; 5.7 m/s)
Visibility: 6 or more miles (10+ km)
Ceiling: 17000 feet AGL
Clouds: few clouds at 400 feet AGL
scattered clouds at 600 feet AGL
broken clouds at 17000 feet AGL
Weather: no significant weather observed at this time

METAR text: ENZV 211320Z 31011KT 9999 FEW003 SCT015 BKN060 09/08 Q1025 NOSIG
Conditions at: ENZV (STAVANGER/SOLA(A, NO) observed 1320 UTC 21 March 2019
Temperature: 9.0°C (48°F)
Dewpoint: 8.0°C (46°F) [RH = 93%]
Pressure (altimeter): 30.27 inches Hg (1025.0 mb)
Winds: from the NW (310 degrees) at 13 MPH (11 knots; 5.7 m/s)
Visibility: 6 or more miles (10+ km)
Ceiling: 6000 feet AGL
Clouds: few clouds at 300 feet AGL
scattered clouds at 1500 feet AGL
broken clouds at 6000 feet AGL
Weather: no significant weather observed at this time

METAR text: ENZV 211250Z 31011KT 8000 FEW002 SCT008 BKN018 08/07 Q1024 NOSIG
Conditions at: ENZV (STAVANGER/SOLA(A, NO) observed 1250 UTC 21 March 2019
Temperature: 8.0°C (46°F)
Dewpoint: 7.0°C (45°F) [RH = 93%]
Pressure (altimeter): 30.24 inches Hg (1024.0 mb)
Winds: from the NW (310 degrees) at 13 MPH (11 knots; 5.7 m/s)
Visibility: 5 miles ( 8 km)
Ceiling: 1800 feet AGL
Clouds: few clouds at 200 feet AGL
scattered clouds at 800 feet AGL
broken clouds at 1800 feet AGL
Weather: no significant weather observed at this time

METAR text: ENZV 211220Z 30009KT 5000 BKN002 08/07 Q1023 BECMG SCT007 BKN020
Conditions at: ENZV (STAVANGER/SOLA(A, NO) observed 1220 UTC 21 March 2019
Temperature: 8.0°C (46°F)
Dewpoint: 7.0°C (45°F) [RH = 93%]
Pressure (altimeter): 30.21 inches Hg (1023.0 mb)
Winds: from the WNW (300 degrees) at 10 MPH (9 knots; 4.6 m/s)
Visibility: 3 miles ( 5 km)
Ceiling: 200 feet AGL
Clouds: broken clouds at 200 feet AGL
Weather: no significant weather observed at this time

METAR text: ENZV 211150Z 29010KT 2000 R18/P2000N R36/0650N R11/0650N BR OVC002 08/07 Q1023 BECMG 9999 NSW SCT007 BKN020
Conditions at: ENZV (STAVANGER/SOLA(A, NO) observed 1150 UTC 21 March 2019
Temperature: 8.0°C (46°F)
Dewpoint: 7.0°C (45°F) [RH = 93%]
Pressure (altimeter): 30.21 inches Hg (1023.0 mb)
Winds: from the WNW (290 degrees) at 12 MPH (10 knots; 5.1 m/s)
Visibility: 1.24 miles (2.00 km)
Ceiling: 200 feet AGL
Clouds: overcast cloud deck at 200 feet AGL
Weather: BR  (mist)

METAR text: ENZV 211120Z 28013KT 2000 -DZ BR OVC002 08/07 Q1023 TEMPO 1200 DZ BR
Conditions at: ENZV (STAVANGER/SOLA(A, NO) observed 1120 UTC 21 March 2019
Temperature: 8.0°C (46°F)
Dewpoint: 7.0°C (45°F) [RH = 93%]
Pressure (altimeter): 30.21 inches Hg (1023.0 mb)
Winds: from the W (280 degrees) at 15 MPH (13 knots; 6.7 m/s)
Visibility: 1.24 miles (2.00 km)
Ceiling: 200 feet AGL
Clouds: overcast cloud deck at 200 feet AGL
Weather: -DZ BR  (light drizzle, mist)

METAR text: ENZV 211050Z 27014KT 2000 -DZ BR OVC002 07/07 Q1022 TEMPO 1200 DZ BR
Conditions at: ENZV (STAVANGER/SOLA(A, NO) observed 1050 UTC 21 March 2019
Temperature: 7.0°C (45°F)
Dewpoint: 7.0°C (45°F) [RH = 100%]
Pressure (altimeter): 30.18 inches Hg (1022.0 mb)
Winds: from the W (270 degrees) at 16 MPH (14 knots; 7.2 m/s)
Visibility: 1.24 miles (2.00 km)
Ceiling: 200 feet AGL
Clouds: overcast cloud deck at 200 feet AGL
Weather: -DZ BR  (light drizzle, mist)

METAR text: ENZV 210950Z 25012KT 4000 -DZ BR OVC002 07/07 Q1021 TEMPO 2000 DZ BR
Conditions at: ENZV (STAVANGER/SOLA(A, NO) observed 0950 UTC 21 March 2019
Temperature: 7.0°C (45°F)
Dewpoint: 7.0°C (45°F) [RH = 100%]
Pressure (altimeter): 30.15 inches Hg (1021.0 mb)
Winds: from the WSW (250 degrees) at 14 MPH (12 knots; 6.2 m/s)
Visibility: 2.49 miles (4.01 km)
Ceiling: 200 feet AGL
Clouds: overcast cloud deck at 200 feet AGL
Weather: -DZ BR  (light drizzle, mist)

METAR text: ENZV 210920Z 25011KT 4500 -DZ BR BKN003 07/06 Q1021 TEMPO 2000 DZ BR
Conditions at: ENZV (STAVANGER/SOLA(A, NO) observed 0920 UTC 21 March 2019
Temperature: 7.0°C (45°F)
Dewpoint: 6.0°C (43°F) [RH = 93%]
Pressure (altimeter): 30.15 inches Hg (1021.0 mb)
Winds: from the WSW (250 degrees) at 13 MPH (11 knots; 5.7 m/s)
Visibility: 2.80 miles (4.51 km)
Ceiling: 300 feet AGL
Clouds: broken clouds at 300 feet AGL
Weather: -DZ BR  (light drizzle, mist)

METAR text: ENZV 210850Z 25012KT 6000 -DZ FEW004 BKN007 07/07 Q1021 TEMPO 2000 DZ BR BKN004
Conditions at: ENZV (STAVANGER/SOLA(A, NO) observed 0850 UTC 21 March 2019
Temperature: 7.0°C (45°F)
Dewpoint: 7.0°C (45°F) [RH = 100%]
Pressure (altimeter): 30.15 inches Hg (1021.0 mb)
Winds: from the WSW (250 degrees) at 14 MPH (12 knots; 6.2 m/s)
Visibility: 4 miles ( 6 km)
Ceiling: 700 feet AGL
Clouds: few clouds at 400 feet AGL
broken clouds at 700 feet AGL
Weather: -DZ  (light drizzle)

METAR text: ENZV 210820Z 24012KT 7000 -RA SCT008 BKN012 08/07 Q1020 TEMPO 2000 DZ BR BKN004
Conditions at: ENZV (STAVANGER/SOLA(A, NO) observed 0820 UTC 21 March 2019
Temperature: 8.0°C (46°F)
Dewpoint: 7.0°C (45°F) [RH = 93%]
Pressure (altimeter): 30.12 inches Hg (1020.0 mb)
Winds: from the WSW (240 degrees) at 14 MPH (12 knots; 6.2 m/s)
Visibility: 4 miles ( 7 km)
Ceiling: 1200 feet AGL
Clouds: scattered clouds at 800 feet AGL
broken clouds at 1200 feet AGL
Weather: -RA  (light rain)

METAR text: ENZV 210750Z 25014KT 9000 -RA FEW008 SCT013 BKN020 08/07 Q1020 TEMPO 2000 DZ BR BKN004
Conditions at: ENZV (STAVANGER/SOLA(A, NO) observed 0750 UTC 21 March 2019
Temperature: 8.0°C (46°F)
Dewpoint: 7.0°C (45°F) [RH = 93%]
Pressure (altimeter): 30.12 inches Hg (1020.0 mb)
Winds: from the WSW (250 degrees) at 16 MPH (14 knots; 7.2 m/s)
Visibility: 6 miles ( 9 km)
Ceiling: 2000 feet AGL
Clouds: few clouds at 800 feet AGL
scattered clouds at 1300 feet AGL
broken clouds at 2000 feet AGL
Weather: -RA  (light rain)

METAR text: ENZV 210720Z 24013KT 9000 -RA FEW008 SCT013 BKN020 08/07 Q1020 TEMPO 4000 DZ BR BKN005
Conditions at: ENZV (STAVANGER/SOLA(A, NO) observed 0720 UTC 21 March 2019
Temperature: 8.0°C (46°F)
Dewpoint: 7.0°C (45°F) [RH = 93%]
Pressure (altimeter): 30.12 inches Hg (1020.0 mb)
Winds: from the WSW (240 degrees) at 15 MPH (13 knots; 6.7 m/s)
Visibility: 6 miles ( 9 km)
Ceiling: 2000 feet AGL
Clouds: few clouds at 800 feet AGL
scattered clouds at 1300 feet AGL
broken clouds at 2000 feet AGL
Weather: -RA  (light rain)

METAR text: ENZV 210650Z 23012KT 9000 -RA FEW007 SCT018 BKN030 08/07 Q1020 TEMPO 4000 DZ BR BKN005
Conditions at: ENZV (STAVANGER/SOLA(A, NO) observed 0650 UTC 21 March 2019
Temperature: 8.0°C (46°F)
Dewpoint: 7.0°C (45°F) [RH = 93%]
Pressure (altimeter): 30.12 inches Hg (1020.0 mb)
Winds: from the SW (230 degrees) at 14 MPH (12 knots; 6.2 m/s)
Visibility: 6 miles ( 9 km)
Ceiling: 3000 feet AGL
Clouds: few clouds at 700 feet AGL
scattered clouds at 1800 feet AGL
broken clouds at 3000 feet AGL
Weather: -RA  (light rain)

METAR text: ENZV 210620Z 23012KT 9000 -RA FEW007 SCT021 BKN028 08/07 Q1019 TEMPO 4000 DZ BR BKN005
Conditions at: ENZV (STAVANGER/SOLA(A, NO) observed 0620 UTC 21 March 2019
Temperature: 8.0°C (46°F)
Dewpoint: 7.0°C (45°F) [RH = 93%]
Pressure (altimeter): 30.09 inches Hg (1019.0 mb)
Winds: from the SW (230 degrees) at 14 MPH (12 knots; 6.2 m/s)
Visibility: 6 miles ( 9 km)
Ceiling: 2800 feet AGL
Clouds: few clouds at 700 feet AGL
scattered clouds at 2100 feet AGL
broken clouds at 2800 feet AGL
Weather: -RA  (light rain)

METAR text: ENZV 210550Z 22011KT 9000 -RA FEW007 SCT015 BKN028 08/07 Q1019 TEMPO 4000 DZ BR BKN005
Conditions at: ENZV (STAVANGER/SOLA(A, NO) observed 0550 UTC 21 March 2019
Temperature: 8.0°C (46°F)
Dewpoint: 7.0°C (45°F) [RH = 93%]
Pressure (altimeter): 30.09 inches Hg (1019.0 mb)
Winds: from the SW (220 degrees) at 13 MPH (11 knots; 5.7 m/s)
Visibility: 6 miles ( 9 km)
Ceiling: 2800 feet AGL
Clouds: few clouds at 700 feet AGL
scattered clouds at 1500 feet AGL
broken clouds at 2800 feet AGL
Weather: -RA  (light rain)

METAR text: ENZV 210520Z 22012KT 8000 -RA SCT006 BKN011 08/07 Q1019 TEMPO 4000 DZRA BR BKN006
Conditions at: ENZV (STAVANGER/SOLA(A, NO) observed 0520 UTC 21 March 2019
Temperature: 8.0°C (46°F)
Dewpoint: 7.0°C (45°F) [RH = 93%]
Pressure (altimeter): 30.09 inches Hg (1019.0 mb)
Winds: from the SW (220 degrees) at 14 MPH (12 knots; 6.2 m/s)
Visibility: 5 miles ( 8 km)
Ceiling: 1100 feet AGL
Clouds: scattered clouds at 600 feet AGL
broken clouds at 1100 feet AGL
Weather: -RA  (light rain)

METAR text: ENZV 210450Z 21011KT 9999 7000E -RA SCT006 BKN025 08/07 Q1019
Conditions at: ENZV (STAVANGER/SOLA(A, NO) observed 0450 UTC 21 March 2019
Temperature: 8.0°C (46°F)
Dewpoint: 7.0°C (45°F) [RH = 93%]
Pressure (altimeter): 30.09 inches Hg (1019.0 mb)
Winds: from the SSW (210 degrees) at 13 MPH (11 knots; 5.7 m/s)
Visibility: 6 or more miles (10+ km)
Ceiling: 2500 feet AGL
Clouds: scattered clouds at 600 feet AGL
broken clouds at 2500 feet AGL
Weather: -RA  (light rain)

METAR text: ENZV 210420Z 20011KT 7000 RA BKN006 08/07 Q1019
Conditions at: ENZV (STAVANGER/SOLA(A, NO) observed 0420 UTC 21 March 2019
Temperature: 8.0°C (46°F)
Dewpoint: 7.0°C (45°F) [RH = 93%]
Pressure (altimeter): 30.09 inches Hg (1019.0 mb)
Winds: from the SSW (200 degrees) at 13 MPH (11 knots; 5.7 m/s)
Visibility: 4 miles ( 7 km)
Ceiling: 600 feet AGL
Clouds: broken clouds at 600 feet AGL
Weather: RA  (moderate rain)

METAR text: ENZV 210350Z 21012KT 9999 BKN007 08/07 Q1019
Conditions at: ENZV (STAVANGER/SOLA(A, NO) observed 0350 UTC 21 March 2019
Temperature: 8.0°C (46°F)
Dewpoint: 7.0°C (45°F) [RH = 93%]
Pressure (altimeter): 30.09 inches Hg (1019.0 mb)
Winds: from the SSW (210 degrees) at 14 MPH (12 knots; 6.2 m/s)
Visibility: 6 or more miles (10+ km)
Ceiling: 700 feet AGL
Clouds: broken clouds at 700 feet AGL
Weather: no significant weather observed at this time

METAR text: ENZV 210250Z 20014KT 9999 BKN007 09/07 Q1019
Conditions at: ENZV (STAVANGER/SOLA(A, NO) observed 0250 UTC 21 March 2019
Temperature: 9.0°C (48°F)
Dewpoint: 7.0°C (45°F) [RH = 87%]
Pressure (altimeter): 30.09 inches Hg (1019.0 mb)
Winds: from the SSW (200 degrees) at 16 MPH (14 knots; 7.2 m/s)
Visibility: 6 or more miles (10+ km)
Ceiling: 700 feet AGL
Clouds: broken clouds at 700 feet AGL
Weather: no significant weather observed at this time

METAR text: ENZV 210150Z 19015KT 9999 BKN008 09/08 Q1019
Conditions at: ENZV (STAVANGER/SOLA(A, NO) observed 0150 UTC 21 March 2019
Temperature: 9.0°C (48°F)
Dewpoint: 8.0°C (46°F) [RH = 93%]
Pressure (altimeter): 30.09 inches Hg (1019.0 mb)
Winds: from the S (190 degrees) at 17 MPH (15 knots; 7.7 m/s)
Visibility: 6 or more miles (10+ km)
Ceiling: 800 feet AGL
Clouds: broken clouds at 800 feet AGL
Weather: no significant weather observed at this time

METAR text: ENZV 210050Z 20016KT 9999 BKN008 09/08 Q1020
Conditions at: ENZV (STAVANGER/SOLA(A, NO) observed 0050 UTC 21 March 2019
Temperature: 9.0°C (48°F)
Dewpoint: 8.0°C (46°F) [RH = 93%]
Pressure (altimeter): 30.12 inches Hg (1020.0 mb)
Winds: from the SSW (200 degrees) at 18 MPH (16 knots; 8.2 m/s)
Visibility: 6 or more miles (10+ km)
Ceiling: 800 feet AGL
Clouds: broken clouds at 800 feet AGL
Weather: no significant weather observed at this time

Forecast for: ENZV (STAVANGER/SOLA(A, NO)
Text: ENZV 2212/2312 16022G32KT 9999 -RA FEW010 BKN018
Forecast period: 1200 UTC 22 March 2019 to 1200 UTC 23 March 2019
Forecast type: FROM: standard forecast or significant change
Winds: from the SSE (160 degrees) at 25 MPH (22 knots; 11.3 m/s)
gusting to 37 MPH (32 knots; 16.5 m/s)
Visibility: 6 or more miles 10+ km)
Ceiling: 1800 feet AGL
Clouds: few clouds at 1000 feet AGL
broken clouds at 1800 feet AGL
Weather: -RA  (light rain)
Text: BECMG 2212/2214 4000 -RADZ OVC010
Forecast period: 1200 to 2000 UTC 22 March 2019
Forecast type: BECOMING: Conditions expected to become as follows by 1400 UTC 22 March 2019
Winds: from the SSE (160 degrees) at 25 MPH (22 knots; 11.3 m/s)
gusting to 37 MPH (32 knots; 16.5 m/s)
Visibility: 2.49 miles (4.01 km)
Ceiling: 1000 feet AGL
Clouds: overcast cloud deck at 1000 feet AGL
Weather: -RA -DZ  (light rain, light drizzle)
Text: TEMPO 2214/2222 2000 DZRA BR BKN004
Forecast period: 1400 to 2200 UTC 22 March 2019
Forecast type: TEMPORARY: The following changes expected for less than half the time period
Visibility: 1.24 miles (2.00 km)
Ceiling: 400 feet AGL
Clouds: broken clouds at 400 feet AGL
Weather: DZ RA BR  (moderate drizzle, moderate rain, mist)
Text: BECMG 2220/2222 26015KT 9999 NSW SCT020 BKN045
Forecast period: 2000 UTC 22 March 2019 to 0800 UTC 23 March 2019
Forecast type: BECOMING: Conditions expected to become as follows by 2200 UTC 22 March 2019
Winds: from the W (260 degrees) at 17 MPH (15 knots; 7.7 m/s)
Visibility: 6 or more miles 10+ km)
Ceiling: 4500 feet AGL
Clouds: scattered clouds at 2000 feet AGL
broken clouds at 4500 feet AGL
Weather: NSW  (no significant weather)
Text: BECMG 2308/2311 26022G35KT
Forecast period: 0800 to 1200 UTC 23 March 2019
Forecast type: BECOMING: Conditions expected to become as follows by 1100 UTC 23 March 2019
Winds: from the W (260 degrees) at 25 MPH (22 knots; 11.3 m/s)
gusting to 40 MPH (35 knots; 18.0 m/s)
Visibility: 6 or more miles 10+ km)
Ceiling: 4500 feet AGL
Clouds: scattered clouds at 2000 feet AGL
broken clouds at 4500 feet AGL
Weather: NSW  (no significant weather)